首页
METAR-TAF:

METAR-TAF

机场 :

南安普敦機場

南安普敦, 英格兰

纬度: 50-54N, 经度: 001-24W, 海拔: 9米

当前天气观测

该预报发布于8小时和12分钟前的15:20 UTC
风速5节,风向西南,在南转南东西转西北之间变化
温度 24°C
湿度 41%
气压 1035 hPa
能见度10公里或以上
1500米以下无云,无积雨云

METAR: EGHI 261520Z 22005KT 160V290 CAVOK 24/10 Q1035

时间: 00:32 (23:32 UTC)

预报

该预报发布于12小时和3分钟前的11:29 UTC
预报有效从26日的 11点(UTC)到 26日的 14点(UTC)
风速5节,风向多变
能见度10公里或以上
1500米以下无云,无积雨云
几率 30%
从 26日的 12点(UTC)到 26日的 14点(UTC)
风速10节,风向西转西南

TAF: EGHI 261129Z 2611/2614 VRB05KT CAVOK PROB30 2612/2614 24010KT

超过4000个机场的气象观测和天气预报(METAR&TAF报告)。

可查询的气象台以黄色和红色小点在地图上表示。

将鼠标移到小点上方,可查看气象台名称。

然后点击查看天气观测和预报。

如需切换地图:点击带黑十字的绿色按钮放大地图;点击带横线的绿色按钮缩小地图;或者点击绿色箭头查看邻近地区的地图。


METAR-TAF: